Terminal Aerodrome Forecast
Issued by NWS Grand Forks, ND

Home | Current Version | Previous Version | Graphics & Text | Print | Product List | Glossary On
Versions: 1 2 3 4 5 6 7 8 9 10 11 12 13 14 15 16 17 18 19
000
FTUS43 KFGF 281720
TAFFAR
TAF
KFAR 281720Z 2818/2918 16014KT P6SM SCT120
     FM282100 19017G25KT P6SM VCTS BKN050CB
     FM290200 23014KT P6SM BKN100
     FM290700 35012G18KT P6SM VCSH BKN050
     FM291200 35019G27KT P6SM OVC025=

USA.gov is the U.S. government's official web portal to all federal, state and local government web resources and services.